sensor_id;sensor_type;location;lat;lon;timestamp;P1;durP1;ratioP1;P2;durP2;ratioP2
25870;SDS011;13689;48.590;7.752;2023-03-16T00:00:46;21.48;;;9.85;;
25870;SDS011;13689;48.590;7.752;2023-03-16T00:03:12;17.65;;;9.05;;
25870;SDS011;13689;48.590;7.752;2023-03-16T00:05:50;16.50;;;8.25;;
25870;SDS011;13689;48.590;7.752;2023-03-16T00:08:17;17.90;;;8.40;;
25870;SDS011;13689;48.590;7.752;2023-03-16T00:10:43;22.10;;;8.50;;
25870;SDS011;13689;48.590;7.752;2023-03-16T00:13:12;21.35;;;9.05;;
25870;SDS011;13689;48.590;7.752;2023-03-16T00:15:39;22.73;;;10.20;;
25870;SDS011;13689;48.590;7.752;2023-03-16T00:18:05;18.98;;;9.77;;
25870;SDS011;13689;48.590;7.752;2023-03-16T00:20:31;20.25;;;9.80;;
25870;SDS011;13689;48.590;7.752;2023-03-16T00:22:57;22.70;;;9.63;;
25870;SDS011;13689;48.590;7.752;2023-03-16T00:25:23;18.35;;;9.90;;
25870;SDS011;13689;48.590;7.752;2023-03-16T00:27:49;22.33;;;9.52;;
25870;SDS011;13689;48.590;7.752;2023-03-16T00:30:15;18.50;;;8.40;;
25870;SDS011;13689;48.590;7.752;2023-03-16T00:32:40;18.95;;;8.52;;
25870;SDS011;13689;48.590;7.752;2023-03-16T00:35:06;19.83;;;8.88;;
25870;SDS011;13689;48.590;7.752;2023-03-16T00:37:32;18.48;;;8.45;;
25870;SDS011;13689;48.590;7.752;2023-03-16T00:39:58;15.93;;;8.77;;
25870;SDS011;13689;48.590;7.752;2023-03-16T00:42:25;23.67;;;10.00;;
25870;SDS011;13689;48.590;7.752;2023-03-16T00:44:56;20.20;;;9.55;;
25870;SDS011;13689;48.590;7.752;2023-03-16T00:47:23;26.65;;;10.30;;
25870;SDS011;13689;48.590;7.752;2023-03-16T00:49:50;19.33;;;9.95;;
25870;SDS011;13689;48.590;7.752;2023-03-16T00:52:16;17.50;;;9.00;;
25870;SDS011;13689;48.590;7.752;2023-03-16T00:54:43;18.77;;;9.57;;
25870;SDS011;13689;48.590;7.752;2023-03-16T00:57:10;21.80;;;9.63;;
25870;SDS011;13689;48.590;7.752;2023-03-16T00:59:43;21.45;;;9.40;;
25870;SDS011;13689;48.590;7.752;2023-03-16T01:02:09;17.75;;;8.85;;
25870;SDS011;13689;48.590;7.752;2023-03-16T01:04:35;19.48;;;9.43;;
25870;SDS011;13689;48.590;7.752;2023-03-16T01:07:02;19.55;;;8.98;;
25870;SDS011;13689;48.590;7.752;2023-03-16T01:09:28;12.70;;;7.57;;
25870;SDS011;13689;48.590;7.752;2023-03-16T01:11:54;20.45;;;9.15;;
25870;SDS011;13689;48.590;7.752;2023-03-16T01:14:20;17.10;;;8.70;;
25870;SDS011;13689;48.590;7.752;2023-03-16T01:16:46;24.75;;;9.23;;
25870;SDS011;13689;48.590;7.752;2023-03-16T01:19:12;15.32;;;8.48;;
25870;SDS011;13689;48.590;7.752;2023-03-16T01:21:42;17.65;;;8.35;;
25870;SDS011;13689;48.590;7.752;2023-03-16T01:24:07;16.02;;;8.52;;
25870;SDS011;13689;48.590;7.752;2023-03-16T01:26:34;18.02;;;8.48;;
25870;SDS011;13689;48.590;7.752;2023-03-16T01:29:00;17.20;;;8.00;;
25870;SDS011;13689;48.590;7.752;2023-03-16T01:31:26;15.30;;;7.35;;
25870;SDS011;13689;48.590;7.752;2023-03-16T01:33:53;15.45;;;8.68;;
25870;SDS011;13689;48.590;7.752;2023-03-16T01:36:19;22.40;;;7.90;;
25870;SDS011;13689;48.590;7.752;2023-03-16T01:38:45;16.90;;;8.18;;
25870;SDS011;13689;48.590;7.752;2023-03-16T01:41:10;18.05;;;8.35;;
25870;SDS011;13689;48.590;7.752;2023-03-16T01:43:38;14.05;;;8.52;;
25870;SDS011;13689;48.590;7.752;2023-03-16T01:48:31;15.18;;;9.55;;
25870;SDS011;13689;48.590;7.752;2023-03-16T01:51:03;16.20;;;9.15;;
25870;SDS011;13689;48.590;7.752;2023-03-16T01:53:31;16.90;;;8.45;;
25870;SDS011;13689;48.590;7.752;2023-03-16T01:55:59;18.17;;;8.90;;
25870;SDS011;13689;48.590;7.752;2023-03-16T01:58:27;17.65;;;8.73;;
25870;SDS011;13689;48.590;7.752;2023-03-16T02:00:55;17.30;;;9.13;;
25870;SDS011;13689;48.590;7.752;2023-03-16T02:03:22;19.75;;;8.63;;
25870;SDS011;13689;48.590;7.752;2023-03-16T02:06:07;20.25;;;8.98;;
25870;SDS011;13689;48.590;7.752;2023-03-16T02:08:43;19.20;;;9.02;;
25870;SDS011;13689;48.590;7.752;2023-03-16T02:11:11;15.30;;;8.10;;
25870;SDS011;13689;48.590;7.752;2023-03-16T02:13:41;24.77;;;9.05;;
25870;SDS011;13689;48.590;7.752;2023-03-16T02:16:08;15.40;;;8.65;;
25870;SDS011;13689;48.590;7.752;2023-03-16T02:18:35;13.63;;;7.50;;
25870;SDS011;13689;48.590;7.752;2023-03-16T02:24:03;19.73;;;8.70;;
25870;SDS011;13689;48.590;7.752;2023-03-16T02:26:33;16.48;;;8.10;;
25870;SDS011;13689;48.590;7.752;2023-03-16T02:31:38;16.92;;;9.10;;
25870;SDS011;13689;48.590;7.752;2023-03-16T02:34:04;16.77;;;9.48;;
25870;SDS011;13689;48.590;7.752;2023-03-16T02:36:31;12.68;;;6.68;;
25870;SDS011;13689;48.590;7.752;2023-03-16T02:38:58;17.33;;;7.23;;
25870;SDS011;13689;48.590;7.752;2023-03-16T02:41:24;21.17;;;10.25;;
25870;SDS011;13689;48.590;7.752;2023-03-16T02:43:52;23.15;;;9.95;;
25870;SDS011;13689;48.590;7.752;2023-03-16T02:46:24;17.27;;;9.23;;
25870;SDS011;13689;48.590;7.752;2023-03-16T02:49:10;14.02;;;9.25;;
25870;SDS011;13689;48.590;7.752;2023-03-16T02:51:44;12.02;;;8.05;;
25870;SDS011;13689;48.590;7.752;2023-03-16T02:54:10;13.63;;;8.18;;
25870;SDS011;13689;48.590;7.752;2023-03-16T02:56:36;17.20;;;7.95;;
25870;SDS011;13689;48.590;7.752;2023-03-16T02:59:02;16.95;;;9.32;;
25870;SDS011;13689;48.590;7.752;2023-03-16T03:01:28;16.70;;;8.77;;
25870;SDS011;13689;48.590;7.752;2023-03-16T03:03:55;16.07;;;8.17;;
25870;SDS011;13689;48.590;7.752;2023-03-16T03:06:21;17.52;;;8.85;;
25870;SDS011;13689;48.590;7.752;2023-03-16T03:08:48;12.77;;;8.63;;
25870;SDS011;13689;48.590;7.752;2023-03-16T03:11:14;21.17;;;9.57;;
25870;SDS011;13689;48.590;7.752;2023-03-16T03:13:39;19.38;;;9.95;;
25870;SDS011;13689;48.590;7.752;2023-03-16T03:16:07;19.08;;;9.90;;
25870;SDS011;13689;48.590;7.752;2023-03-16T03:18:33;17.38;;;9.40;;
25870;SDS011;13689;48.590;7.752;2023-03-16T03:20:58;18.20;;;9.50;;
25870;SDS011;13689;48.590;7.752;2023-03-16T03:23:24;20.58;;;9.43;;
25870;SDS011;13689;48.590;7.752;2023-03-16T03:25:50;19.70;;;9.85;;
25870;SDS011;13689;48.590;7.752;2023-03-16T03:28:15;16.77;;;10.23;;
25870;SDS011;13689;48.590;7.752;2023-03-16T03:30:41;21.73;;;9.27;;
25870;SDS011;13689;48.590;7.752;2023-03-16T03:33:06;16.65;;;10.55;;
25870;SDS011;13689;48.590;7.752;2023-03-16T03:35:32;18.95;;;11.23;;
25870;SDS011;13689;48.590;7.752;2023-03-16T03:37:58;21.13;;;10.10;;
25870;SDS011;13689;48.590;7.752;2023-03-16T03:40:23;17.75;;;10.18;;
25870;SDS011;13689;48.590;7.752;2023-03-16T03:42:49;19.30;;;9.45;;
25870;SDS011;13689;48.590;7.752;2023-03-16T03:45:15;16.15;;;9.30;;
25870;SDS011;13689;48.590;7.752;2023-03-16T03:47:41;16.42;;;9.75;;
25870;SDS011;13689;48.590;7.752;2023-03-16T03:50:08;16.85;;;9.52;;
25870;SDS011;13689;48.590;7.752;2023-03-16T03:52:35;14.40;;;7.75;;
25870;SDS011;13689;48.590;7.752;2023-03-16T03:55:00;16.02;;;10.35;;
25870;SDS011;13689;48.590;7.752;2023-03-16T03:57:26;16.75;;;9.45;;
25870;SDS011;13689;48.590;7.752;2023-03-16T03:59:51;20.23;;;9.95;;
25870;SDS011;13689;48.590;7.752;2023-03-16T04:02:17;15.85;;;9.25;;
25870;SDS011;13689;48.590;7.752;2023-03-16T04:04:43;18.55;;;10.73;;
25870;SDS011;13689;48.590;7.752;2023-03-16T04:07:09;20.00;;;10.32;;
25870;SDS011;13689;48.590;7.752;2023-03-16T04:09:35;22.90;;;11.13;;
25870;SDS011;13689;48.590;7.752;2023-03-16T04:12:01;23.02;;;9.85;;
25870;SDS011;13689;48.590;7.752;2023-03-16T04:14:28;17.75;;;10.25;;
25870;SDS011;13689;48.590;7.752;2023-03-16T04:16:54;17.67;;;9.50;;
25870;SDS011;13689;48.590;7.752;2023-03-16T04:19:20;16.08;;;9.63;;
25870;SDS011;13689;48.590;7.752;2023-03-16T04:21:47;17.85;;;10.07;;
25870;SDS011;13689;48.590;7.752;2023-03-16T04:24:13;15.73;;;9.90;;
25870;SDS011;13689;48.590;7.752;2023-03-16T04:26:42;19.27;;;11.20;;
25870;SDS011;13689;48.590;7.752;2023-03-16T04:29:12;21.25;;;10.90;;
25870;SDS011;13689;48.590;7.752;2023-03-16T04:31:39;21.35;;;10.25;;
25870;SDS011;13689;48.590;7.752;2023-03-16T04:34:06;19.50;;;11.00;;
25870;SDS011;13689;48.590;7.752;2023-03-16T04:36:32;20.90;;;11.43;;
25870;SDS011;13689;48.590;7.752;2023-03-16T04:38:58;19.55;;;11.25;;
25870;SDS011;13689;48.590;7.752;2023-03-16T04:41:23;21.10;;;12.32;;
25870;SDS011;13689;48.590;7.752;2023-03-16T04:43:50;24.45;;;13.13;;
25870;SDS011;13689;48.590;7.752;2023-03-16T04:46:16;22.00;;;12.23;;
25870;SDS011;13689;48.590;7.752;2023-03-16T04:48:41;27.80;;;13.40;;
25870;SDS011;13689;48.590;7.752;2023-03-16T04:51:07;21.45;;;12.13;;
25870;SDS011;13689;48.590;7.752;2023-03-16T04:53:33;20.58;;;11.77;;
25870;SDS011;13689;48.590;7.752;2023-03-16T04:55:58;20.52;;;12.10;;
25870;SDS011;13689;48.590;7.752;2023-03-16T04:58:24;24.00;;;12.50;;
25870;SDS011;13689;48.590;7.752;2023-03-16T05:00:50;21.20;;;11.48;;
25870;SDS011;13689;48.590;7.752;2023-03-16T05:03:17;22.45;;;11.57;;
25870;SDS011;13689;48.590;7.752;2023-03-16T05:05:42;20.50;;;11.18;;
25870;SDS011;13689;48.590;7.752;2023-03-16T05:08:10;18.23;;;11.07;;
25870;SDS011;13689;48.590;7.752;2023-03-16T05:10:36;18.10;;;11.23;;
25870;SDS011;13689;48.590;7.752;2023-03-16T05:13:02;25.02;;;11.77;;
25870;SDS011;13689;48.590;7.752;2023-03-16T05:15:29;20.20;;;10.93;;
25870;SDS011;13689;48.590;7.752;2023-03-16T05:17:55;19.05;;;10.63;;
25870;SDS011;13689;48.590;7.752;2023-03-16T05:20:21;17.10;;;10.38;;
25870;SDS011;13689;48.590;7.752;2023-03-16T05:22:47;21.05;;;11.00;;
25870;SDS011;13689;48.590;7.752;2023-03-16T05:25:14;29.48;;;11.73;;
25870;SDS011;13689;48.590;7.752;2023-03-16T05:27:41;20.58;;;11.02;;
25870;SDS011;13689;48.590;7.752;2023-03-16T05:30:11;19.30;;;10.63;;
25870;SDS011;13689;48.590;7.752;2023-03-16T05:32:38;16.20;;;8.43;;
25870;SDS011;13689;48.590;7.752;2023-03-16T05:35:04;19.23;;;10.43;;
25870;SDS011;13689;48.590;7.752;2023-03-16T05:37:31;20.00;;;11.00;;
25870;SDS011;13689;48.590;7.752;2023-03-16T05:39:57;19.08;;;11.32;;
25870;SDS011;13689;48.590;7.752;2023-03-16T05:42:23;23.15;;;12.20;;
25870;SDS011;13689;48.590;7.752;2023-03-16T05:44:51;21.90;;;11.82;;
25870;SDS011;13689;48.590;7.752;2023-03-16T05:47:17;21.02;;;11.43;;
25870;SDS011;13689;48.590;7.752;2023-03-16T05:49:44;20.40;;;11.80;;
25870;SDS011;13689;48.590;7.752;2023-03-16T05:52:09;20.40;;;11.93;;
25870;SDS011;13689;48.590;7.752;2023-03-16T05:54:35;24.42;;;12.85;;
25870;SDS011;13689;48.590;7.752;2023-03-16T05:57:01;23.80;;;12.45;;
25870;SDS011;13689;48.590;7.752;2023-03-16T05:59:27;20.83;;;12.07;;
25870;SDS011;13689;48.590;7.752;2023-03-16T06:01:52;20.10;;;11.30;;
25870;SDS011;13689;48.590;7.752;2023-03-16T06:04:18;19.73;;;11.60;;
25870;SDS011;13689;48.590;7.752;2023-03-16T06:06:44;21.05;;;10.40;;
25870;SDS011;13689;48.590;7.752;2023-03-16T06:09:09;21.38;;;10.95;;
25870;SDS011;13689;48.590;7.752;2023-03-16T06:11:35;22.95;;;12.38;;
25870;SDS011;13689;48.590;7.752;2023-03-16T06:14:04;24.25;;;11.88;;
25870;SDS011;13689;48.590;7.752;2023-03-16T06:16:29;21.10;;;11.57;;
25870;SDS011;13689;48.590;7.752;2023-03-16T06:18:55;23.38;;;11.95;;
25870;SDS011;13689;48.590;7.752;2023-03-16T06:21:21;22.38;;;12.55;;
25870;SDS011;13689;48.590;7.752;2023-03-16T06:23:47;21.33;;;11.98;;
25870;SDS011;13689;48.590;7.752;2023-03-16T06:26:13;20.55;;;11.82;;
25870;SDS011;13689;48.590;7.752;2023-03-16T06:28:38;24.33;;;13.18;;
25870;SDS011;13689;48.590;7.752;2023-03-16T06:31:05;25.15;;;12.65;;
25870;SDS011;13689;48.590;7.752;2023-03-16T06:33:31;22.45;;;12.77;;
25870;SDS011;13689;48.590;7.752;2023-03-16T06:35:57;20.58;;;12.25;;
25870;SDS011;13689;48.590;7.752;2023-03-16T06:38:22;24.35;;;12.85;;
25870;SDS011;13689;48.590;7.752;2023-03-16T06:40:52;29.15;;;12.20;;
25870;SDS011;13689;48.590;7.752;2023-03-16T06:43:18;25.20;;;13.05;;
25870;SDS011;13689;48.590;7.752;2023-03-16T06:45:44;27.20;;;13.45;;
25870;SDS011;13689;48.590;7.752;2023-03-16T06:48:09;24.50;;;13.38;;
25870;SDS011;13689;48.590;7.752;2023-03-16T06:50:35;25.25;;;13.00;;
25870;SDS011;13689;48.590;7.752;2023-03-16T06:53:00;27.70;;;13.25;;
25870;SDS011;13689;48.590;7.752;2023-03-16T06:55:26;23.35;;;12.43;;
25870;SDS011;13689;48.590;7.752;2023-03-16T06:57:52;22.35;;;12.60;;
25870;SDS011;13689;48.590;7.752;2023-03-16T07:00:17;23.27;;;12.65;;
25870;SDS011;13689;48.590;7.752;2023-03-16T07:02:43;30.10;;;12.98;;
25870;SDS011;13689;48.590;7.752;2023-03-16T07:05:09;22.70;;;11.77;;
25870;SDS011;13689;48.590;7.752;2023-03-16T07:07:41;23.95;;;12.07;;
25870;SDS011;13689;48.590;7.752;2023-03-16T07:10:11;21.60;;;12.48;;
25870;SDS011;13689;48.590;7.752;2023-03-16T07:12:38;27.90;;;12.95;;
25870;SDS011;13689;48.590;7.752;2023-03-16T07:15:04;21.35;;;11.20;;
25870;SDS011;13689;48.590;7.752;2023-03-16T07:17:30;19.42;;;11.25;;
25870;SDS011;13689;48.590;7.752;2023-03-16T07:19:56;17.02;;;9.52;;
25870;SDS011;13689;48.590;7.752;2023-03-16T07:22:22;27.38;;;11.48;;
25870;SDS011;13689;48.590;7.752;2023-03-16T07:24:48;17.73;;;11.00;;
25870;SDS011;13689;48.590;7.752;2023-03-16T07:27:20;20.35;;;10.10;;
25870;SDS011;13689;48.590;7.752;2023-03-16T07:29:47;15.23;;;10.20;;
25870;SDS011;13689;48.590;7.752;2023-03-16T07:32:13;18.45;;;8.85;;
25870;SDS011;13689;48.590;7.752;2023-03-16T07:34:39;16.23;;;9.15;;
25870;SDS011;13689;48.590;7.752;2023-03-16T07:37:06;13.65;;;9.07;;
25870;SDS011;13689;48.590;7.752;2023-03-16T07:39:51;12.48;;;7.35;;
25870;SDS011;13689;48.590;7.752;2023-03-16T07:42:17;15.48;;;7.50;;
25870;SDS011;13689;48.590;7.752;2023-03-16T07:44:43;12.23;;;6.88;;
25870;SDS011;13689;48.590;7.752;2023-03-16T07:47:12;16.55;;;7.43;;
25870;SDS011;13689;48.590;7.752;2023-03-16T07:49:38;12.32;;;6.43;;
25870;SDS011;13689;48.590;7.752;2023-03-16T07:52:05;14.27;;;7.55;;
25870;SDS011;13689;48.590;7.752;2023-03-16T07:54:31;11.23;;;7.35;;
25870;SDS011;13689;48.590;7.752;2023-03-16T07:56:57;11.75;;;7.05;;
25870;SDS011;13689;48.590;7.752;2023-03-16T07:59:23;14.55;;;7.18;;
25870;SDS011;13689;48.590;7.752;2023-03-16T08:01:48;11.85;;;7.70;;
25870;SDS011;13689;48.590;7.752;2023-03-16T08:04:14;16.55;;;7.75;;
25870;SDS011;13689;48.590;7.752;2023-03-16T08:06:40;8.63;;;6.13;;
25870;SDS011;13689;48.590;7.752;2023-03-16T08:09:06;12.30;;;6.65;;
25870;SDS011;13689;48.590;7.752;2023-03-16T08:11:32;13.75;;;7.03;;
25870;SDS011;13689;48.590;7.752;2023-03-16T08:13:58;12.23;;;6.95;;
25870;SDS011;13689;48.590;7.752;2023-03-16T08:16:23;11.57;;;6.65;;
25870;SDS011;13689;48.590;7.752;2023-03-16T08:18:50;12.50;;;5.78;;
25870;SDS011;13689;48.590;7.752;2023-03-16T08:21:17;13.25;;;5.78;;
25870;SDS011;13689;48.590;7.752;2023-03-16T08:23:43;10.65;;;6.25;;
25870;SDS011;13689;48.590;7.752;2023-03-16T08:26:13;9.07;;;5.95;;
25870;SDS011;13689;48.590;7.752;2023-03-16T08:28:44;9.40;;;5.78;;
25870;SDS011;13689;48.590;7.752;2023-03-16T08:31:11;9.18;;;5.15;;
25870;SDS011;13689;48.590;7.752;2023-03-16T08:33:38;8.83;;;5.27;;
25870;SDS011;13689;48.590;7.752;2023-03-16T08:36:08;6.47;;;5.30;;
25870;SDS011;13689;48.590;7.752;2023-03-16T08:38:36;6.03;;;4.88;;
25870;SDS011;13689;48.590;7.752;2023-03-16T08:41:03;12.38;;;5.90;;
25870;SDS011;13689;48.590;7.752;2023-03-16T08:43:30;8.88;;;4.72;;
25870;SDS011;13689;48.590;7.752;2023-03-16T08:45:56;5.97;;;4.28;;
25870;SDS011;13689;48.590;7.752;2023-03-16T08:48:23;8.45;;;4.57;;
25870;SDS011;13689;48.590;7.752;2023-03-16T08:50:49;11.25;;;5.10;;
25870;SDS011;13689;48.590;7.752;2023-03-16T08:53:16;6.72;;;4.40;;
25870;SDS011;13689;48.590;7.752;2023-03-16T08:55:43;9.10;;;4.30;;
25870;SDS011;13689;48.590;7.752;2023-03-16T08:58:09;8.93;;;4.65;;
25870;SDS011;13689;48.590;7.752;2023-03-16T09:00:37;6.67;;;3.73;;
25870;SDS011;13689;48.590;7.752;2023-03-16T09:05:29;6.22;;;3.30;;
25870;SDS011;13689;48.590;7.752;2023-03-16T09:07:56;8.50;;;4.20;;
25870;SDS011;13689;48.590;7.752;2023-03-16T09:10:22;4.47;;;3.78;;
25870;SDS011;13689;48.590;7.752;2023-03-16T09:12:49;7.90;;;4.03;;
25870;SDS011;13689;48.590;7.752;2023-03-16T09:15:16;4.97;;;3.45;;
25870;SDS011;13689;48.590;7.752;2023-03-16T09:17:43;7.00;;;3.97;;
25870;SDS011;13689;48.590;7.752;2023-03-16T09:20:10;5.13;;;3.35;;
25870;SDS011;13689;48.590;7.752;2023-03-16T09:22:37;6.70;;;3.67;;
25870;SDS011;13689;48.590;7.752;2023-03-16T09:25:06;4.43;;;3.40;;
25870;SDS011;13689;48.590;7.752;2023-03-16T09:27:35;7.70;;;3.15;;
25870;SDS011;13689;48.590;7.752;2023-03-16T09:30:05;5.05;;;3.25;;
25870;SDS011;13689;48.590;7.752;2023-03-16T09:32:32;3.97;;;2.88;;
25870;SDS011;13689;48.590;7.752;2023-03-16T09:34:59;5.32;;;3.65;;
25870;SDS011;13689;48.590;7.752;2023-03-16T09:37:24;6.22;;;3.13;;
25870;SDS011;13689;48.590;7.752;2023-03-16T09:39:51;6.03;;;3.38;;
25870;SDS011;13689;48.590;7.752;2023-03-16T09:47:47;3.30;;;2.65;;
25870;SDS011;13689;48.590;7.752;2023-03-16T09:50:20;5.30;;;2.70;;
25870;SDS011;13689;48.590;7.752;2023-03-16T09:52:57;4.85;;;2.22;;
25870;SDS011;13689;48.590;7.752;2023-03-16T09:55:33;4.22;;;2.17;;
25870;SDS011;13689;48.590;7.752;2023-03-16T09:58:03;3.45;;;2.10;;
25870;SDS011;13689;48.590;7.752;2023-03-16T10:00:37;3.20;;;2.25;;
25870;SDS011;13689;48.590;7.752;2023-03-16T10:06:08;2.80;;;2.38;;
25870;SDS011;13689;48.590;7.752;2023-03-16T10:08:38;6.65;;;4.50;;
25870;SDS011;13689;48.590;7.752;2023-03-16T10:14:08;5.70;;;4.10;;
25870;SDS011;13689;48.590;7.752;2023-03-16T10:16:46;8.93;;;5.00;;
25870;SDS011;13689;48.590;7.752;2023-03-16T10:19:19;7.65;;;4.30;;
25870;SDS011;13689;48.590;7.752;2023-03-16T10:21:58;4.63;;;2.53;;
25870;SDS011;13689;48.590;7.752;2023-03-16T10:24:32;8.15;;;4.50;;
25870;SDS011;13689;48.590;7.752;2023-03-16T10:27:15;7.03;;;4.32;;
25870;SDS011;13689;48.590;7.752;2023-03-16T10:29:48;5.15;;;1.92;;
25870;SDS011;13689;48.590;7.752;2023-03-16T10:32:15;2.95;;;1.80;;
25870;SDS011;13689;48.590;7.752;2023-03-16T10:34:44;2.40;;;1.73;;
25870;SDS011;13689;48.590;7.752;2023-03-16T10:37:17;4.07;;;1.88;;
25870;SDS011;13689;48.590;7.752;2023-03-16T10:39:46;4.03;;;2.30;;
25870;SDS011;13689;48.590;7.752;2023-03-16T10:42:13;6.90;;;2.35;;
25870;SDS011;13689;48.590;7.752;2023-03-16T10:44:41;3.92;;;1.60;;
25870;SDS011;13689;48.590;7.752;2023-03-16T10:47:07;3.97;;;1.67;;
25870;SDS011;13689;48.590;7.752;2023-03-16T10:49:41;6.55;;;2.35;;
25870;SDS011;13689;48.590;7.752;2023-03-16T10:54:52;8.50;;;2.58;;
25870;SDS011;13689;48.590;7.752;2023-03-16T10:57:24;6.78;;;2.13;;
25870;SDS011;13689;48.590;7.752;2023-03-16T10:59:52;4.53;;;2.53;;
25870;SDS011;13689;48.590;7.752;2023-03-16T11:02:21;3.42;;;1.55;;
25870;SDS011;13689;48.590;7.752;2023-03-16T11:04:50;5.00;;;2.10;;
25870;SDS011;13689;48.590;7.752;2023-03-16T11:07:18;7.28;;;4.03;;
25870;SDS011;13689;48.590;7.752;2023-03-16T11:09:48;2.30;;;2.10;;
25870;SDS011;13689;48.590;7.752;2023-03-16T11:12:24;4.82;;;1.95;;
25870;SDS011;13689;48.590;7.752;2023-03-16T11:14:52;4.22;;;1.92;;
25870;SDS011;13689;48.590;7.752;2023-03-16T11:17:23;5.30;;;2.40;;
25870;SDS011;13689;48.590;7.752;2023-03-16T11:20:02;3.78;;;2.33;;
25870;SDS011;13689;48.590;7.752;2023-03-16T11:22:36;4.30;;;1.20;;
25870;SDS011;13689;48.590;7.752;2023-03-16T11:33:34;5.40;;;2.50;;
25870;SDS011;13689;48.590;7.752;2023-03-16T11:36:25;5.15;;;2.28;;
25870;SDS011;13689;48.590;7.752;2023-03-16T11:42:02;9.15;;;2.38;;
25870;SDS011;13689;48.590;7.752;2023-03-16T11:47:23;5.07;;;2.40;;
25870;SDS011;13689;48.590;7.752;2023-03-16T11:50:16;6.90;;;2.95;;
25870;SDS011;13689;48.590;7.752;2023-03-16T11:55:41;5.47;;;1.63;;
25870;SDS011;13689;48.590;7.752;2023-03-16T11:58:27;6.55;;;1.77;;
25870;SDS011;13689;48.590;7.752;2023-03-16T12:03:49;3.72;;;1.83;;
25870;SDS011;13689;48.590;7.752;2023-03-16T12:18:24;6.32;;;1.77;;
25870;SDS011;13689;48.590;7.752;2023-03-16T12:23:27;3.17;;;1.60;;
25870;SDS011;13689;48.590;7.752;2023-03-16T12:25:59;4.65;;;1.48;;
25870;SDS011;13689;48.590;7.752;2023-03-16T12:28:25;4.07;;;1.50;;
25870;SDS011;13689;48.590;7.752;2023-03-16T12:31:01;2.60;;;1.70;;
25870;SDS011;13689;48.590;7.752;2023-03-16T12:42:13;3.63;;;1.33;;
25870;SDS011;13689;48.590;7.752;2023-03-16T12:44:59;7.85;;;1.50;;
25870;SDS011;13689;48.590;7.752;2023-03-16T12:50:11;3.28;;;1.60;;
25870;SDS011;13689;48.590;7.752;2023-03-16T12:52:44;2.50;;;0.55;;
25870;SDS011;13689;48.590;7.752;2023-03-16T12:55:16;9.20;;;2.17;;
25870;SDS011;13689;48.590;7.752;2023-03-16T12:57:49;6.00;;;2.17;;
25870;SDS011;13689;48.590;7.752;2023-03-16T13:00:31;4.35;;;1.70;;
25870;SDS011;13689;48.590;7.752;2023-03-16T13:02:59;6.00;;;1.90;;
25870;SDS011;13689;48.590;7.752;2023-03-16T13:05:33;3.30;;;1.63;;
25870;SDS011;13689;48.590;7.752;2023-03-16T13:08:10;5.05;;;1.30;;
25870;SDS011;13689;48.590;7.752;2023-03-16T13:10:42;10.23;;;1.35;;
25870;SDS011;13689;48.590;7.752;2023-03-16T13:16:31;5.22;;;1.02;;
25870;SDS011;13689;48.590;7.752;2023-03-16T13:19:00;1.08;;;0.80;;
25870;SDS011;13689;48.590;7.752;2023-03-16T13:21:47;2.65;;;0.88;;
25870;SDS011;13689;48.590;7.752;2023-03-16T13:24:26;1.25;;;0.90;;
25870;SDS011;13689;48.590;7.752;2023-03-16T13:27:01;1.05;;;0.90;;
25870;SDS011;13689;48.590;7.752;2023-03-16T13:29:31;9.63;;;0.98;;
25870;SDS011;13689;48.590;7.752;2023-03-16T13:32:07;1.95;;;0.90;;
25870;SDS011;13689;48.590;7.752;2023-03-16T13:34:46;3.20;;;0.88;;
25870;SDS011;13689;48.590;7.752;2023-03-16T13:37:14;1.50;;;0.77;;
25870;SDS011;13689;48.590;7.752;2023-03-16T13:39:50;3.90;;;0.70;;
25870;SDS011;13689;48.590;7.752;2023-03-16T13:42:24;2.40;;;1.05;;
25870;SDS011;13689;48.590;7.752;2023-03-16T13:44:57;4.55;;;0.63;;
25870;SDS011;13689;48.590;7.752;2023-03-16T13:47:27;3.25;;;1.00;;
25870;SDS011;13689;48.590;7.752;2023-03-16T13:49:54;3.70;;;1.55;;
25870;SDS011;13689;48.590;7.752;2023-03-16T13:52:24;4.88;;;1.10;;
25870;SDS011;13689;48.590;7.752;2023-03-16T13:55:00;3.70;;;1.10;;
25870;SDS011;13689;48.590;7.752;2023-03-16T13:57:41;3.00;;;1.40;;
25870;SDS011;13689;48.590;7.752;2023-03-16T14:02:43;5.43;;;1.45;;
25870;SDS011;13689;48.590;7.752;2023-03-16T14:05:16;3.92;;;0.95;;
25870;SDS011;13689;48.590;7.752;2023-03-16T14:07:45;4.32;;;1.33;;
25870;SDS011;13689;48.590;7.752;2023-03-16T14:10:13;1.90;;;1.20;;
25870;SDS011;13689;48.590;7.752;2023-03-16T14:13:05;3.38;;;1.40;;
25870;SDS011;13689;48.590;7.752;2023-03-16T14:15:46;2.03;;;0.73;;
25870;SDS011;13689;48.590;7.752;2023-03-16T14:20:40;4.15;;;1.70;;
25870;SDS011;13689;48.590;7.752;2023-03-16T14:26:08;1.35;;;1.08;;
25870;SDS011;13689;48.590;7.752;2023-03-16T14:28:40;2.72;;;1.20;;
25870;SDS011;13689;48.590;7.752;2023-03-16T14:31:18;2.97;;;1.27;;
25870;SDS011;13689;48.590;7.752;2023-03-16T14:33:45;3.88;;;1.55;;
25870;SDS011;13689;48.590;7.752;2023-03-16T14:36:12;2.88;;;1.52;;
25870;SDS011;13689;48.590;7.752;2023-03-16T14:38:43;6.50;;;2.00;;
25870;SDS011;13689;48.590;7.752;2023-03-16T14:41:16;2.35;;;1.70;;
25870;SDS011;13689;48.590;7.752;2023-03-16T14:43:47;2.15;;;1.73;;
25870;SDS011;13689;48.590;7.752;2023-03-16T14:46:25;1.45;;;1.35;;
25870;SDS011;13689;48.590;7.752;2023-03-16T14:49:00;2.80;;;1.58;;
25870;SDS011;13689;48.590;7.752;2023-03-16T14:51:33;2.88;;;1.42;;
25870;SDS011;13689;48.590;7.752;2023-03-16T14:54:01;2.53;;;1.63;;
25870;SDS011;13689;48.590;7.752;2023-03-16T14:56:32;2.20;;;0.75;;
25870;SDS011;13689;48.590;7.752;2023-03-16T14:58:59;4.38;;;1.80;;
25870;SDS011;13689;48.590;7.752;2023-03-16T15:01:25;4.45;;;1.33;;
25870;SDS011;13689;48.590;7.752;2023-03-16T15:03:50;4.15;;;1.60;;
25870;SDS011;13689;48.590;7.752;2023-03-16T15:06:16;5.68;;;1.38;;
25870;SDS011;13689;48.590;7.752;2023-03-16T15:08:43;2.88;;;1.48;;
25870;SDS011;13689;48.590;7.752;2023-03-16T15:11:11;1.90;;;1.38;;
25870;SDS011;13689;48.590;7.752;2023-03-16T15:13:37;4.03;;;2.28;;
25870;SDS011;13689;48.590;7.752;2023-03-16T15:16:09;4.47;;;1.45;;
25870;SDS011;13689;48.590;7.752;2023-03-16T15:18:37;3.08;;;1.60;;
25870;SDS011;13689;48.590;7.752;2023-03-16T15:21:08;1.70;;;1.13;;
25870;SDS011;13689;48.590;7.752;2023-03-16T15:23:36;3.13;;;1.70;;
25870;SDS011;13689;48.590;7.752;2023-03-16T15:26:03;2.78;;;1.60;;
25870;SDS011;13689;48.590;7.752;2023-03-16T15:30:58;2.40;;;1.23;;
25870;SDS011;13689;48.590;7.752;2023-03-16T15:33:25;5.93;;;1.63;;
25870;SDS011;13689;48.590;7.752;2023-03-16T15:35:52;6.72;;;1.40;;
25870;SDS011;13689;48.590;7.752;2023-03-16T15:38:21;4.30;;;1.27;;
25870;SDS011;13689;48.590;7.752;2023-03-16T15:40:48;4.15;;;1.35;;
25870;SDS011;13689;48.590;7.752;2023-03-16T15:43:16;1.23;;;1.13;;
25870;SDS011;13689;48.590;7.752;2023-03-16T15:48:09;4.97;;;1.45;;
25870;SDS011;13689;48.590;7.752;2023-03-16T15:50:37;2.88;;;1.52;;
25870;SDS011;13689;48.590;7.752;2023-03-16T15:53:06;4.55;;;1.60;;
25870;SDS011;13689;48.590;7.752;2023-03-16T15:55:37;4.05;;;1.85;;
25870;SDS011;13689;48.590;7.752;2023-03-16T15:58:21;5.57;;;1.67;;
25870;SDS011;13689;48.590;7.752;2023-03-16T16:00:50;5.13;;;1.52;;
25870;SDS011;13689;48.590;7.752;2023-03-16T16:03:21;3.63;;;1.45;;
25870;SDS011;13689;48.590;7.752;2023-03-16T16:05:47;3.67;;;1.33;;
25870;SDS011;13689;48.590;7.752;2023-03-16T16:08:13;2.33;;;1.58;;
25870;SDS011;13689;48.590;7.752;2023-03-16T16:10:39;2.38;;;1.67;;